Middlebury, VT

5:01 AM EDT on May 07, 2015 (GMT -0400)
Morrisville Stowe State | | Change Station
CLOSE
Current Station
Airport
Location: Morrisville,
Elevation: 732 ft
Nearby Weather Stations

Elev 732 ft 44.53 °N, 72.61 °W | Updated 1 hour ago

Clear
Clear
41 °F
Feels Like 41 °F
N
0
Wind Variable Wind from North

Today
High -- | Low -- °F
--% Chance of Precip.
Yesterday
High -- | Low -- °F
Precip. -- in
5:36 AM 8:02 PM
Waning Gibbous, 89% visible
Pressure 30.21 in
Visibility 10.0 miles
Clouds Clear
Dew Point 36 °F
Humidity 82%
Rainfall 0.00 in
Snow Depth Not available.
UV 0 out of 12
Pollen 11.30 out of 12
Air Quality Not available.
Flu Activity Regional
METAR KMVL 070754Z AUTO 00000KT 10SM CLR 05/02 A3020 RMK AO2 SLP229 T00500022 TSNO

More Conditions Fewer Conditions

Pressure 30.21 in
Visibility 10.0 miles
Clouds Clear
Dew Point 36 °F
Humidity 82%
Rainfall 0.00 in
Snow Depth Not available.
UV 0 out of 12
Pollen 11.30 out of 12
Air Quality Not available.
Flu Activity Regional
METAR KMVL 070754Z AUTO 00000KT 10SM CLR 05/02 A3020 RMK AO2 SLP229 T00500022 TSNO

More Conditions Fewer Conditions

10-Day Weather Forecast

Almanac

Astronomy

May. 07, 2015 Rise Set
Actual Time
Civil Twilight
Nautical Twilight
Astronomical Twilight
Moon
Length of Visible Light
Length of Day
Tomorrow will be .
, % of the Moon is Illuminated

Today's Extremes

State Highs State Lows

Community

WunderPhotos

Upload Photos

1,819,133 photos uploaded!

WunderBlogs® & News

Nearby

Air Quality

  Air Quality AQ Index Pollutant
Not available.

Snow Depth

Station Depth Elevation

Earthquake Activity

City Distance Mag. Time & Date
Minimum magnitude displayed is 2.5.

Coastal Water Temperatures

Place Temperature

Stations

Nearby Weather Stations

Station Location Temp. Windchill Dew Point Humidity Wind Precip. Elev Updated Type